createdAt,value
2018-12-12T00:02:01.823Z,88.89
2018-12-12T00:04:35.255Z,88.96
2018-12-12T00:07:09.371Z,88.39
2018-12-12T00:09:42.578Z,89.09
2018-12-12T00:12:13.685Z,88.62
2018-12-12T00:14:44.931Z,89.37
2018-12-12T00:17:16.279Z,88.85
2018-12-12T00:19:50.364Z,88.98
2018-12-12T00:22:32.012Z,89.32
2018-12-12T00:25:05.082Z,88.72
2018-12-12T00:27:36.222Z,89.04
2018-12-12T00:30:10.393Z,88.89
2018-12-12T00:32:55.614Z,88.71
2018-12-12T00:35:44.951Z,88.79
2018-12-12T00:38:17.258Z,88.57
2018-12-12T00:40:49.122Z,88.47
2018-12-12T00:43:22.204Z,88.59
2018-12-12T00:45:54.867Z,88.70
2018-12-12T00:48:28.312Z,88.83
2018-12-12T00:50:58.978Z,88.68
2018-12-12T00:53:36.515Z,89.06
2018-12-12T00:56:09.098Z,88.41
2018-12-12T00:58:41.574Z,88.90
2018-12-12T01:01:13.118Z,88.98
2018-12-12T01:03:46.153Z,88.63
2018-12-12T01:06:17.339Z,89.17
2018-12-12T01:08:48.804Z,89.06
2018-12-12T01:11:27.191Z,88.18
2018-12-12T01:14:13.780Z,89.25
2018-12-12T01:16:44.669Z,88.03
2018-12-12T01:19:15.230Z,88.86
2018-12-12T01:21:46.354Z,88.79
2018-12-12T01:24:16.855Z,88.95
2018-12-12T01:26:47.915Z,88.83
2018-12-12T01:29:18.534Z,89.47
2018-12-12T01:31:49.207Z,88.92
2018-12-12T01:34:19.938Z,88.77
2018-12-12T01:36:51.005Z,88.36
2018-12-12T01:39:27.442Z,88.36
2018-12-12T01:42:01.129Z,88.32
2018-12-12T01:44:33.758Z,87.26
2018-12-12T01:47:07.332Z,88.06
2018-12-12T01:49:37.962Z,87.14
2018-12-12T01:52:11.506Z,87.14
2018-12-12T01:54:42.131Z,86.98
2018-12-12T01:57:15.281Z,87.14
2018-12-12T01:59:46.573Z,87.09
2018-12-12T02:02:19.513Z,87.02
2018-12-12T02:04:52.268Z,85.88
2018-12-12T02:07:24.759Z,85.89
2018-12-12T02:09:55.834Z,86.08
2018-12-12T02:12:31.128Z,86.97
2018-12-12T02:15:07.746Z,86.65
2018-12-12T02:17:41.983Z,86.87
2018-12-12T02:23:03.698Z,87.61
2018-12-12T02:25:42.708Z,87.67
2018-12-12T02:28:14.470Z,86.90
2018-12-12T02:30:46.343Z,87.67
2018-12-12T02:33:18.600Z,87.92
2018-12-12T02:35:49.553Z,88.07
2018-12-12T02:38:20.655Z,87.97
2018-12-12T02:40:51.247Z,88.71
2018-12-12T02:43:22.275Z,88.21
2018-12-12T02:45:55.200Z,87.78
2018-12-12T02:48:26.824Z,88.12
2018-12-12T02:50:59.838Z,88.46
2018-12-12T02:53:31.454Z,87.98
2018-12-12T02:56:04.153Z,88.51
2018-12-12T02:58:40.261Z,88.45
2018-12-12T03:01:17.699Z,88.42
2018-12-12T03:03:48.613Z,88.19
2018-12-12T03:06:22.505Z,88.09
2018-12-12T03:08:57.640Z,87.64
2018-12-12T03:11:29.279Z,87.83
2018-12-12T03:14:02.727Z,88.03
2018-12-12T03:16:36.735Z,87.65
2018-12-12T03:19:08.583Z,88.32
2018-12-12T03:21:42.472Z,87.84
2018-12-12T03:24:13.858Z,88.33
2018-12-12T03:26:45.986Z,88.60
2018-12-12T03:29:17.673Z,89.06
2018-12-12T03:31:48.710Z,88.42
2018-12-12T03:34:19.851Z,88.61
2018-12-12T03:36:50.710Z,89.07
2018-12-12T03:39:24.953Z,88.58
2018-12-12T03:41:58.515Z,89.16
2018-12-12T03:44:32.502Z,88.75
2018-12-12T03:47:05.121Z,88.57
2018-12-12T03:49:35.839Z,89.49
2018-12-12T03:52:08.304Z,89.53
2018-12-12T03:54:40.781Z,88.85
2018-12-12T03:57:11.466Z,88.50
2018-12-12T03:59:42.034Z,88.47
2018-12-12T04:02:14.968Z,89.20
2018-12-12T04:04:45.977Z,89.27
2018-12-12T04:07:18.699Z,90.00
2018-12-12T04:09:50.823Z,89.32
2018-12-12T04:12:22.977Z,88.81
2018-12-12T04:14:55.061Z,88.21
2018-12-12T04:17:28.021Z,87.75
2018-12-12T04:20:00.732Z,88.27
2018-12-12T04:22:32.663Z,88.28
2018-12-12T04:25:07.822Z,88.45
2018-12-12T04:27:38.897Z,88.60
2018-12-12T04:30:09.887Z,88.63
2018-12-12T04:32:40.931Z,87.72
2018-12-12T04:38:07.715Z,88.62
2018-12-12T04:40:43.724Z,88.90
2018-12-12T04:43:15.152Z,88.83
2018-12-12T04:46:04.826Z,89.27
2018-12-12T04:48:35.938Z,88.97
2018-12-12T04:51:08.247Z,89.02
2018-12-12T04:53:40.274Z,88.41
2018-12-12T04:56:11.475Z,89.01
2018-12-12T04:58:42.542Z,88.56
2018-12-12T05:01:13.054Z,89.44
2018-12-12T05:03:43.935Z,89.02
2018-12-12T05:06:26.144Z,88.95
2018-12-12T05:08:57.472Z,89.14
2018-12-12T05:11:30.296Z,89.54
2018-12-12T05:14:00.814Z,89.18
2018-12-12T05:16:31.662Z,89.14
2018-12-12T05:19:02.225Z,89.82
2018-12-12T05:21:33.021Z,89.78
2018-12-12T05:24:06.265Z,89.93
2018-12-12T05:26:37.750Z,89.92
2018-12-12T05:29:09.738Z,90.61
2018-12-12T05:31:43.840Z,90.51
2018-12-12T05:34:17.079Z,90.89
2018-12-12T05:36:53.389Z,90.76
2018-12-12T05:39:25.730Z,90.60
2018-12-12T05:41:56.794Z,90.66
2018-12-12T05:44:35.145Z,90.56
2018-12-12T05:47:06.874Z,90.68
2018-12-12T05:49:40.698Z,91.32
2018-12-12T05:52:11.454Z,91.51
2018-12-12T05:54:43.075Z,91.21
2018-12-12T05:57:15.129Z,91.40
2018-12-12T05:59:46.250Z,91.51
2018-12-12T06:02:19.657Z,91.29
2018-12-12T06:04:50.571Z,90.82
2018-12-12T06:07:21.989Z,90.65
2018-12-12T06:09:58.238Z,91.01
2018-12-12T06:12:31.542Z,91.51
2018-12-12T06:15:03.009Z,90.60
2018-12-12T06:17:33.666Z,90.98
2018-12-12T06:20:07.962Z,91.12
2018-12-12T06:22:40.944Z,91.22
2018-12-12T06:25:32.512Z,91.39
2018-12-12T06:28:04.724Z,92.03
2018-12-12T06:30:44.699Z,92.34
2018-12-12T06:33:15.713Z,91.66
2018-12-12T06:36:00.643Z,92.42
2018-12-12T06:38:31.423Z,93.06
2018-12-12T06:41:02.963Z,92.16
2018-12-12T06:43:35.348Z,92.21
2018-12-12T06:46:08.042Z,91.75
2018-12-12T06:48:44.466Z,92.16
2018-12-12T06:51:15.683Z,91.37
2018-12-12T06:53:46.674Z,91.60
2018-12-12T06:56:18.746Z,92.39
2018-12-12T06:58:49.905Z,92.62
2018-12-12T07:01:22.733Z,91.40
2018-12-12T07:03:54.520Z,91.66
2018-12-12T07:06:27.571Z,91.88
2018-12-12T07:08:58.882Z,91.97
2018-12-12T07:11:31.889Z,92.26
2018-12-12T07:14:03.218Z,92.39
2018-12-12T07:16:34.233Z,91.87
2018-12-12T07:19:05.532Z,92.23
2018-12-12T07:21:37.562Z,92.64
2018-12-12T07:24:10.202Z,92.89
2018-12-12T07:26:41.707Z,92.60
2018-12-12T07:29:12.695Z,92.52
2018-12-12T07:31:43.347Z,92.50
2018-12-12T07:34:22.474Z,92.78
2018-12-12T07:36:53.629Z,92.93
2018-12-12T07:39:24.194Z,93.20
2018-12-12T07:41:54.699Z,93.06
2018-12-12T07:44:25.851Z,92.55
2018-12-12T07:46:57.038Z,92.51
2018-12-12T07:49:30.431Z,92.36
2018-12-12T07:52:02.841Z,92.71
2018-12-12T07:54:36.263Z,93.19
2018-12-12T07:57:08.114Z,93.58
2018-12-12T07:59:42.802Z,94.31
2018-12-12T08:02:15.238Z,93.80
2018-12-12T08:04:46.059Z,93.12
2018-12-12T08:07:16.736Z,93.75
2018-12-12T08:09:47.455Z,93.75
2018-12-12T08:12:18.584Z,93.55
2018-12-12T08:14:54.988Z,93.58
2018-12-12T08:17:27.790Z,93.45
2018-12-12T08:20:02.547Z,93.46
2018-12-12T08:22:37.650Z,93.41
2018-12-12T08:25:14.256Z,93.10
2018-12-12T08:27:52.791Z,93.44
2018-12-12T08:30:38.425Z,92.99
2018-12-12T08:33:12.875Z,92.86
2018-12-12T08:35:43.398Z,92.11
2018-12-12T08:38:15.949Z,91.47
2018-12-12T08:40:48.958Z,92.04
2018-12-12T08:43:20.555Z,91.55
2018-12-12T08:45:54.739Z,92.67
2018-12-12T08:48:26.830Z,92.44
2018-12-12T08:50:57.991Z,92.46
2018-12-12T08:53:31.009Z,92.70
2018-12-12T08:56:03.477Z,92.70
2018-12-12T08:58:43.695Z,92.57
2018-12-12T09:01:15.441Z,92.84
2018-12-12T09:03:46.902Z,92.20
2018-12-12T09:06:19.400Z,91.32
2018-12-12T09:08:50.253Z,91.71
2018-12-12T09:11:24.898Z,92.02
2018-12-12T09:14:04.024Z,91.37
2018-12-12T09:16:34.616Z,91.42
2018-12-12T09:19:05.438Z,90.63
2018-12-12T09:21:36.699Z,89.89
2018-12-12T09:24:07.418Z,89.96
2018-12-12T09:26:38.241Z,89.33
2018-12-12T09:29:11.521Z,88.88
2018-12-12T09:31:42.092Z,88.52
2018-12-12T09:34:13.211Z,86.62
2018-12-12T09:36:43.886Z,87.33
2018-12-12T09:39:14.683Z,87.53
2018-12-12T09:41:47.894Z,87.78
2018-12-12T09:44:18.790Z,88.86
2018-12-12T09:46:50.501Z,87.98
2018-12-12T09:49:23.294Z,87.60
2018-12-12T09:51:56.702Z,88.18
2018-12-12T09:54:27.299Z,88.69
2018-12-12T09:57:01.595Z,88.11
2018-12-12T09:59:34.486Z,87.61
2018-12-12T10:02:05.650Z,87.05
2018-12-12T10:04:38.632Z,87.31
2018-12-12T10:07:09.892Z,87.15
2018-12-12T10:09:40.704Z,87.49
2018-12-12T10:12:13.887Z,86.20
2018-12-12T10:14:49.431Z,85.81
2018-12-12T10:17:21.263Z,86.79
2018-12-12T10:19:52.332Z,85.82
2018-12-12T10:22:22.967Z,85.27
2018-12-12T10:24:56.253Z,84.30
2018-12-12T10:27:27.228Z,84.14
2018-12-12T10:29:58.306Z,84.19
2018-12-12T10:32:38.416Z,84.29
2018-12-12T10:35:11.294Z,84.01
2018-12-12T10:37:43.169Z,83.21
2018-12-12T10:40:28.203Z,81.86
2018-12-12T10:43:06.370Z,81.45
2018-12-12T10:45:38.525Z,79.84
2018-12-12T10:48:11.436Z,78.90
2018-12-12T10:50:49.041Z,79.66
2018-12-12T10:53:19.938Z,79.36
2018-12-12T10:55:55.347Z,80.01
2018-12-12T10:58:28.504Z,81.57
2018-12-12T11:01:05.965Z,81.77
2018-12-12T11:03:44.263Z,82.93
2018-12-12T11:06:16.184Z,82.70
2018-12-12T11:08:46.750Z,81.89
2018-12-12T11:11:20.141Z,82.19
2018-12-12T11:13:50.818Z,83.14
2018-12-12T11:16:26.906Z,83.27
2018-12-12T11:19:01.154Z,83.22
2018-12-12T11:21:34.718Z,83.31
2018-12-12T11:24:07.827Z,83.26
2018-12-12T11:26:39.150Z,83.17
2018-12-12T11:29:10.280Z,83.16
2018-12-12T11:31:43.889Z,84.14
2018-12-12T11:34:18.102Z,84.79
2018-12-12T11:36:50.781Z,84.50
2018-12-12T11:39:21.772Z,83.64
2018-12-12T11:41:56.476Z,83.73
2018-12-12T11:44:30.630Z,82.75
2018-12-12T11:47:06.599Z,82.18
2018-12-12T11:49:39.877Z,81.77
2018-12-12T11:52:13.683Z,81.86
2018-12-12T11:54:44.211Z,82.63
2018-12-12T11:57:15.789Z,82.37
2018-12-12T11:59:46.854Z,83.05
2018-12-12T12:02:19.119Z,81.09
2018-12-12T12:04:50.306Z,83.56
2018-12-12T12:07:25.994Z,86.78
2018-12-12T12:09:57.117Z,87.71
2018-12-12T12:12:30.746Z,88.69
2018-12-12T12:15:04.384Z,89.40
2018-12-12T12:17:34.991Z,89.22
2018-12-12T12:20:08.818Z,87.40
2018-12-12T12:22:42.891Z,86.96
2018-12-12T12:25:16.016Z,87.09
2018-12-12T12:28:00.877Z,86.04
2018-12-12T12:33:24.308Z,85.75
2018-12-12T12:35:56.174Z,86.21
2018-12-12T12:38:28.580Z,85.88
2018-12-12T12:40:59.408Z,86.96
2018-12-12T12:43:30.491Z,86.55
2018-12-12T12:46:04.484Z,86.57
2018-12-12T12:48:35.294Z,86.58
2018-12-12T12:51:21.727Z,87.92
2018-12-12T12:53:54.133Z,88.83
2018-12-12T12:56:25.917Z,88.27
2018-12-12T12:58:58.332Z,88.85
2018-12-12T13:01:32.127Z,89.22
2018-12-12T13:04:09.715Z,87.93
2018-12-12T13:06:42.508Z,88.15
2018-12-12T13:09:14.255Z,87.14
2018-12-12T13:11:47.295Z,88.17
2018-12-12T13:14:20.313Z,87.29
2018-12-12T13:16:53.535Z,88.06
2018-12-12T13:19:24.822Z,87.97
2018-12-12T13:21:55.860Z,88.14
2018-12-12T13:24:29.443Z,87.59
2018-12-12T13:27:02.552Z,88.58
2018-12-12T13:29:36.051Z,89.28
2018-12-12T13:32:07.811Z,88.63
2018-12-12T13:34:43.473Z,88.44
2018-12-12T13:37:14.214Z,88.59
2018-12-12T13:39:45.539Z,87.67
2018-12-12T13:42:16.290Z,87.71
2018-12-12T13:44:46.803Z,86.57
2018-12-12T13:47:17.647Z,86.39
2018-12-12T13:49:48.542Z,86.85
2018-12-12T13:52:19.636Z,86.57
2018-12-12T13:54:55.307Z,86.77
2018-12-12T13:57:26.517Z,86.65
2018-12-12T13:59:58.275Z,88.00
2018-12-12T14:02:28.885Z,88.60
2018-12-12T14:04:59.992Z,88.32
2018-12-12T14:07:32.323Z,88.60
2018-12-12T14:10:06.050Z,89.73
2018-12-12T14:12:39.731Z,90.15
2018-12-12T14:15:10.315Z,90.58
2018-12-12T14:17:41.292Z,90.71
2018-12-12T14:20:14.583Z,90.57
2018-12-12T14:23:00.781Z,91.57
2018-12-12T14:25:33.643Z,91.28
2018-12-12T14:28:21.179Z,90.41
2018-12-12T14:30:52.622Z,90.41
2018-12-12T14:33:25.589Z,90.68
2018-12-12T14:36:01.151Z,89.93
2018-12-12T14:38:33.756Z,89.90
2018-12-12T14:41:07.670Z,89.83
2018-12-12T14:43:40.969Z,89.17
2018-12-12T14:46:17.674Z,89.58
2018-12-12T14:48:48.775Z,89.46
2018-12-12T14:51:22.238Z,89.57
2018-12-12T14:53:55.964Z,88.94
2018-12-12T14:56:28.648Z,88.11
2018-12-12T14:59:02.726Z,87.88
2018-12-12T15:01:34.939Z,87.81
2018-12-12T15:04:07.855Z,87.25
2018-12-12T15:06:38.576Z,87.52
2018-12-12T15:09:10.394Z,86.88
2018-12-12T15:11:41.695Z,87.58
2018-12-12T15:14:13.643Z,87.52
2018-12-12T15:16:44.595Z,87.33
2018-12-12T15:19:16.795Z,87.47
2018-12-12T15:21:50.532Z,86.67
2018-12-12T15:24:23.840Z,87.01
2018-12-12T15:26:56.489Z,86.03
2018-12-12T15:29:30.410Z,86.36
2018-12-12T15:32:01.892Z,84.78
2018-12-12T15:34:35.209Z,84.46
2018-12-12T15:37:14.887Z,84.37
2018-12-12T15:39:45.743Z,82.25
2018-12-12T15:42:16.621Z,83.29
2018-12-12T15:44:49.302Z,84.56
2018-12-12T15:47:20.007Z,85.06
2018-12-12T15:49:51.782Z,83.66
2018-12-12T15:52:24.939Z,83.22
2018-12-12T15:55:01.966Z,82.60
2018-12-12T15:57:34.847Z,82.24
2018-12-12T16:00:06.541Z,82.43
2018-12-12T16:02:39.255Z,81.32
2018-12-12T16:05:10.966Z,81.39
2018-12-12T16:07:49.522Z,81.95
2018-12-12T16:10:37.778Z,82.14
2018-12-12T16:13:09.018Z,83.59
2018-12-12T16:15:47.363Z,84.23
2018-12-12T16:18:20.239Z,84.17
2018-12-12T16:20:53.079Z,84.13
2018-12-12T16:23:26.029Z,84.34
2018-12-12T16:26:05.197Z,84.18
2018-12-12T16:28:38.010Z,84.91
2018-12-12T16:31:11.930Z,83.91
2018-12-12T16:33:43.587Z,84.50
2018-12-12T16:36:24.031Z,84.95
2018-12-12T16:38:55.065Z,85.67
2018-12-12T16:41:26.126Z,86.40
2018-12-12T16:44:00.243Z,86.95
2018-12-12T16:46:32.741Z,88.09
2018-12-12T16:49:03.307Z,89.31
2018-12-12T16:51:37.105Z,88.58
2018-12-12T16:54:10.208Z,88.93
2018-12-12T16:56:41.126Z,88.82
2018-12-12T16:59:15.107Z,88.57
2018-12-12T17:01:48.856Z,88.61
2018-12-12T17:04:22.298Z,88.12
2018-12-12T17:06:58.325Z,87.41
2018-12-12T17:09:30.422Z,87.59
2018-12-12T17:12:02.168Z,87.60
2018-12-12T17:14:33.435Z,87.17
2018-12-12T17:17:04.453Z,87.95
2018-12-12T17:19:37.952Z,87.54
2018-12-12T17:22:11.405Z,87.29
2018-12-12T17:24:42.356Z,86.63
2018-12-12T17:27:13.074Z,86.03
2018-12-12T17:29:44.183Z,87.23
2018-12-12T17:32:17.447Z,87.06
2018-12-12T17:34:50.345Z,84.83
2018-12-12T17:37:22.241Z,83.86
2018-12-12T17:39:55.523Z,81.99
2018-12-12T17:42:29.618Z,79.34
2018-12-12T17:45:02.425Z,79.92
2018-12-12T17:47:36.575Z,78.48
2018-12-12T17:50:13.178Z,80.83
2018-12-12T17:52:44.430Z,81.71
2018-12-12T17:55:28.278Z,82.09
2018-12-12T17:58:01.886Z,81.93
2018-12-12T18:00:42.601Z,82.30
2018-12-12T18:03:14.632Z,82.12
2018-12-12T18:05:48.724Z,82.28
2018-12-12T18:08:21.731Z,82.70
2018-12-12T18:10:54.656Z,82.02
2018-12-12T18:13:26.645Z,80.66
2018-12-12T18:16:00.272Z,81.05
2018-12-12T18:18:31.356Z,83.14
2018-12-12T18:21:03.466Z,84.56
2018-12-12T18:23:38.727Z,85.17
2018-12-12T18:26:11.687Z,85.24
2018-12-12T18:28:42.241Z,84.89
2018-12-12T18:31:12.817Z,82.60
2018-12-12T18:33:43.956Z,80.36
2018-12-12T18:36:14.488Z,79.72
2018-12-12T18:38:47.552Z,85.68
2018-12-12T18:41:19.470Z,86.38
2018-12-12T18:43:53.108Z,87.82
2018-12-12T18:46:27.286Z,89.37
2018-12-12T18:49:04.998Z,90.22
2018-12-12T18:51:41.255Z,87.80
2018-12-12T18:54:11.831Z,83.30
2018-12-12T18:56:44.178Z,82.45
2018-12-12T18:59:21.139Z,82.20
2018-12-12T19:01:52.378Z,80.90
2018-12-12T19:04:26.525Z,80.78
2018-12-12T19:06:59.751Z,82.70
2018-12-12T19:09:33.882Z,82.65
2018-12-12T19:12:08.079Z,83.17
2018-12-12T19:14:44.390Z,83.19
2018-12-12T19:17:26.987Z,82.29
2018-12-12T19:19:59.806Z,82.13
2018-12-12T19:22:33.312Z,79.73
2018-12-12T19:25:13.575Z,79.34
2018-12-12T19:27:45.822Z,78.72
2018-12-12T19:30:30.045Z,79.32
2018-12-12T19:33:02.143Z,78.89
2018-12-12T19:35:34.991Z,79.21
2018-12-12T19:38:08.457Z,79.25
2018-12-12T19:40:40.085Z,78.54
2018-12-12T19:43:11.354Z,77.70
2018-12-12T19:45:44.427Z,75.41
2018-12-12T19:48:19.687Z,74.85
2018-12-12T19:50:54.820Z,75.90
2018-12-12T19:53:26.788Z,75.63
2018-12-12T19:56:04.549Z,74.92
2018-12-12T19:58:36.182Z,73.13
2018-12-12T20:01:10.257Z,71.00
2018-12-12T20:03:43.189Z,69.66
2018-12-12T20:06:14.853Z,67.91
2018-12-12T20:08:52.892Z,67.14
2018-12-12T20:11:24.512Z,66.74
2018-12-12T20:14:00.446Z,65.88
2018-12-12T20:16:32.127Z,65.24
2018-12-12T20:19:05.295Z,66.35
2018-12-12T20:21:41.043Z,68.32
2018-12-12T20:24:11.873Z,68.35
2018-12-12T20:26:42.519Z,71.40
2018-12-12T20:29:14.784Z,72.60
2018-12-12T20:31:51.967Z,72.16
2018-12-12T20:34:23.061Z,71.76
2018-12-12T20:36:54.650Z,71.07
2018-12-12T20:39:27.435Z,69.99
2018-12-12T20:41:59.307Z,70.46
2018-12-12T20:44:31.055Z,70.42
2018-12-12T20:47:02.501Z,72.96
2018-12-12T20:49:33.296Z,74.25
2018-12-12T20:52:04.837Z,73.92
2018-12-12T20:54:37.856Z,73.36
2018-12-12T20:57:11.317Z,73.26
2018-12-12T20:59:45.895Z,71.57
2018-12-12T21:02:18.296Z,71.54
2018-12-12T21:04:52.398Z,70.24
2018-12-12T21:07:23.319Z,69.60
2018-12-12T21:09:54.214Z,72.09
2018-12-12T21:12:30.353Z,71.93
2018-12-12T21:15:02.673Z,72.89
2018-12-12T21:17:35.458Z,72.06
2018-12-12T21:20:10.595Z,71.67
2018-12-12T21:22:49.339Z,70.84
2018-12-12T21:25:29.232Z,72.44
2018-12-12T21:28:14.699Z,73.28
2018-12-12T21:30:50.607Z,72.52
2018-12-12T21:33:21.428Z,74.09
2018-12-12T21:36:00.727Z,75.64
2018-12-12T21:38:30.957Z,75.61
2018-12-12T21:41:02.690Z,74.98
2018-12-12T21:43:36.373Z,76.14
2018-12-12T21:46:09.653Z,77.11
2018-12-12T21:48:42.567Z,77.17
2018-12-12T21:51:13.249Z,78.21
2018-12-12T21:53:44.235Z,77.60
2018-12-12T21:56:17.520Z,75.97
2018-12-12T21:58:50.991Z,75.92
2018-12-12T22:01:25.262Z,76.16
2018-12-12T22:03:58.510Z,77.53
2018-12-12T22:06:29.887Z,78.51
2018-12-12T22:09:00.778Z,77.82
2018-12-12T22:11:32.408Z,78.20
2018-12-12T22:14:20.311Z,78.83
2018-12-12T22:16:53.558Z,78.24
2018-12-12T22:19:27.909Z,77.77
2018-12-12T22:21:58.912Z,78.75
2018-12-12T22:24:29.598Z,78.52
2018-12-12T22:27:03.519Z,79.55
2018-12-12T22:29:37.113Z,78.86
2018-12-12T22:32:10.740Z,79.11
2018-12-12T22:34:43.711Z,79.12
2018-12-12T22:37:17.046Z,78.22
2018-12-12T22:39:47.823Z,78.50
2018-12-12T22:42:18.668Z,78.35
2018-12-12T22:44:49.396Z,77.92
2018-12-12T22:47:20.046Z,79.47
2018-12-12T22:49:50.919Z,79.06
2018-12-12T22:52:23.886Z,78.43
2018-12-12T22:54:54.586Z,77.15
2018-12-12T22:57:25.843Z,75.74
2018-12-12T22:59:58.663Z,75.65
2018-12-12T23:02:30.628Z,75.88
2018-12-12T23:05:04.213Z,77.03
2018-12-12T23:07:39.958Z,78.53
2018-12-12T23:10:10.790Z,80.22
2018-12-12T23:12:41.816Z,80.91
2018-12-12T23:15:13.534Z,80.55
2018-12-12T23:17:44.842Z,80.50
2018-12-12T23:20:16.630Z,80.18
2018-12-12T23:22:48.043Z,79.63
2018-12-12T23:25:36.955Z,79.31
2018-12-12T23:28:20.574Z,79.73
2018-12-12T23:30:52.999Z,78.97
2018-12-12T23:33:24.226Z,80.02
2018-12-12T23:36:00.765Z,81.45
2018-12-12T23:38:34.045Z,83.00
2018-12-12T23:41:11.721Z,83.24
2018-12-12T23:43:44.567Z,83.15
2018-12-12T23:46:20.879Z,84.11
2018-12-12T23:48:51.523Z,84.44
2018-12-12T23:51:22.061Z,84.04
2018-12-12T23:53:54.679Z,83.69
2018-12-12T23:56:26.068Z,83.88
2018-12-12T23:58:57.322Z,83.92
